Time;durP1;ratioP1;P1;durP2;ratioP2;P2;SDS_P1;SDS_P2;PMS_P1;PMS_P2;Temp;Humidity;BMP_temperature;BMP_pressure;BME280_temperature;BME280_humidity;BME280_pressure;Samples;Min_cycle;Max_cycle;Signal;HPM_P1;HPM_P2
2023/08/06 00:00:18;;;;;;;1.30;0.85;;;21.10;66.00;;;;;;5024790;28;20035;-76
2023/08/06 00:02:44;;;;;;;1.75;1.10;;;21.10;65.90;;;;;;5025716;28;20057;-76
2023/08/06 00:05:09;;;;;;;1.75;0.80;;;21.10;65.90;;;;;;5026375;28;20049;-75
2023/08/06 00:07:35;;;;;;;0.75;0.70;;;21.10;66.00;;;;;;5024452;28;20526;-76
2023/08/06 00:10:00;;;;;;;1.98;1.23;;;21.10;65.90;;;;;;5026251;28;20026;-75
2023/08/06 00:12:26;;;;;;;2.63;1.10;;;21.10;65.80;;;;;;5023028;28;20034;-75
2023/08/06 00:14:52;;;;;;;1.42;0.95;;;21.10;65.90;;;;;;5024917;28;20047;-75
2023/08/06 00:17:17;;;;;;;1.45;1.00;;;21.10;66.00;;;;;;5026017;28;20029;-75
2023/08/06 00:19:43;;;;;;;0.98;0.88;;;21.10;66.10;;;;;;5025287;28;20100;-75
2023/08/06 00:22:09;;;;;;;1.42;0.98;;;21.10;66.00;;;;;;5026686;28;20048;-75
2023/08/06 00:24:35;;;;;;;1.50;1.00;;;21.10;66.00;;;;;;5027228;28;20449;-75
2023/08/06 00:27:00;;;;;;;1.60;1.10;;;21.00;66.00;;;;;;5025790;28;20049;-76
2023/08/06 00:29:26;;;;;;;1.75;1.42;;;21.10;66.30;;;;;;5026013;28;20574;-76
2023/08/06 00:31:51;;;;;;;1.25;1.00;;;21.10;66.10;;;;;;5025291;28;20050;-76
2023/08/06 00:34:17;;;;;;;1.25;1.15;;;21.10;66.10;;;;;;5024820;28;20120;-75
2023/08/06 00:36:43;;;;;;;0.95;0.93;;;21.10;66.00;;;;;;5026245;28;20056;-75
2023/08/06 00:39:08;;;;;;;0.98;0.85;;;21.00;66.10;;;;;;5024805;28;20396;-76
2023/08/06 00:41:34;;;;;;;1.10;1.00;;;21.00;66.10;;;;;;5024598;28;20106;-75
2023/08/06 00:43:59;;;;;;;2.00;0.95;;;21.10;66.20;;;;;;5025134;28;20101;-75
2023/08/06 00:46:25;;;;;;;1.00;0.90;;;21.00;66.20;;;;;;5021282;28;20496;-75
2023/08/06 00:48:50;;;;;;;1.90;1.00;;;21.10;66.10;;;;;;5040193;28;20033;-75
2023/08/06 00:51:16;;;;;;;1.48;0.90;;;21.10;66.20;;;;;;5025238;28;20588;-75
2023/08/06 00:53:42;;;;;;;1.13;1.02;;;21.10;66.30;;;;;;5027406;28;20403;-75
2023/08/06 00:56:08;;;;;;;1.48;1.38;;;21.10;66.10;;;;;;5007362;28;20495;-75
2023/08/06 00:58:33;;;;;;;1.48;1.10;;;21.10;66.20;;;;;;5007617;28;20034;-75
2023/08/06 01:00:59;;;;;;;0.75;0.63;;;21.10;66.10;;;;;;5008429;28;20025;-75
2023/08/06 01:03:25;;;;;;;1.23;0.95;;;21.00;66.30;;;;;;5018909;28;22229;-75
2023/08/06 01:05:51;;;;;;;1.88;1.10;;;21.10;66.30;;;;;;5023782;28;20045;-76
2023/08/06 01:08:40;;;;;;;1.48;0.85;;;21.00;66.20;;;;;;5025051;28;20058;-76
2023/08/06 01:11:27;;;;;;;1.35;1.25;;;21.10;66.30;;;;;;5023180;28;20045;-75
2023/08/06 01:14:28;;;;;;;1.50;0.70;;;21.10;66.20;;;;;;5024230;28;20050;-75
2023/08/06 01:16:53;;;;;;;1.23;0.98;;;21.10;66.30;;;;;;5021585;28;20045;-76
2023/08/06 01:19:19;;;;;;;0.95;0.90;;;21.00;66.20;;;;;;5024216;28;20083;-75
2023/08/06 01:21:45;;;;;;;1.23;0.95;;;21.10;67.10;;;;;;5023496;28;20045;-75
2023/08/06 01:24:11;;;;;;;3.35;0.95;;;21.10;66.30;;;;;;5021337;28;20050;-75
2023/08/06 01:26:55;;;;;;;1.00;0.90;;;21.00;66.30;;;;;;5024272;28;20061;-76
2023/08/06 01:29:28;;;;;;;1.27;0.90;;;21.00;66.40;;;;;;5040809;28;20473;-75
2023/08/06 01:31:53;;;;;;;0.98;0.90;;;21.00;66.30;;;;;;5023664;28;20511;-76
2023/08/06 01:34:24;;;;;;;1.10;0.85;;;21.00;66.30;;;;;;5024450;28;20061;-75
2023/08/06 01:36:50;;;;;;;1.45;1.33;;;21.00;66.30;;;;;;5023422;28;20053;-75
2023/08/06 01:39:16;;;;;;;0.80;0.80;;;21.00;66.40;;;;;;5024492;28;20037;-76
2023/08/06 01:41:41;;;;;;;1.10;0.88;;;21.00;66.30;;;;;;5026104;28;20041;-76
2023/08/06 01:44:07;;;;;;;0.82;0.80;;;21.00;66.30;;;;;;5024904;28;20092;-75
2023/08/06 01:46:32;;;;;;;1.38;1.17;;;21.00;66.40;;;;;;5021091;28;20180;-75
2023/08/06 01:48:58;;;;;;;1.63;1.17;;;21.00;66.30;;;;;;5023486;28;20466;-75
2023/08/06 01:51:24;;;;;;;1.05;0.90;;;21.00;66.40;;;;;;5022941;28;20061;-75
2023/08/06 01:53:49;;;;;;;1.50;1.13;;;21.00;66.40;;;;;;5024599;28;20041;-75
2023/08/06 01:56:15;;;;;;;1.27;0.88;;;21.00;66.50;;;;;;5021147;28;20041;-75
2023/08/06 01:58:40;;;;;;;1.15;0.90;;;21.00;66.50;;;;;;5022949;28;20064;-75
2023/08/06 02:01:06;;;;;;;1.20;1.00;;;21.00;66.30;;;;;;5020695;28;20558;-75
2023/08/06 02:03:31;;;;;;;1.35;0.73;;;21.00;67.20;;;;;;5023193;28;20117;-75
2023/08/06 02:05:57;;;;;;;0.90;0.90;;;21.00;66.50;;;;;;5024674;28;20091;-75
2023/08/06 02:08:22;;;;;;;1.13;1.02;;;21.00;66.30;;;;;;5024826;28;20049;-76
2023/08/06 02:10:48;;;;;;;1.08;0.93;;;21.00;66.40;;;;;;5020587;28;20041;-75
2023/08/06 02:13:13;;;;;;;1.58;0.80;;;21.00;66.50;;;;;;5023190;28;20129;-75
2023/08/06 02:15:43;;;;;;;1.00;0.90;;;21.00;66.40;;;;;;5020361;28;20107;-75
2023/08/06 02:18:09;;;;;;;0.80;0.80;;;21.00;66.40;;;;;;5023792;28;20029;-75
2023/08/06 02:20:34;;;;;;;1.02;0.82;;;21.00;66.40;;;;;;5025806;28;20423;-75
2023/08/06 02:23:00;;;;;;;1.35;0.90;;;21.00;66.40;;;;;;5022360;28;20064;-75
2023/08/06 02:25:25;;;;;;;1.30;0.95;;;21.00;66.50;;;;;;5022583;28;20422;-75
2023/08/06 02:27:51;;;;;;;1.70;0.82;;;20.90;66.50;;;;;;5021629;28;20036;-75
2023/08/06 02:30:16;;;;;;;1.10;0.90;;;20.90;66.50;;;;;;5021618;28;20034;-75
2023/08/06 02:32:42;;;;;;;1.23;0.95;;;21.00;66.40;;;;;;5024625;28;20038;-75
2023/08/06 02:35:08;;;;;;;1.77;1.08;;;20.90;66.50;;;;;;5024396;28;20524;-75
2023/08/06 02:37:34;;;;;;;1.05;0.73;;;20.90;66.70;;;;;;5023548;28;20092;-75
2023/08/06 02:39:59;;;;;;;2.40;0.93;;;21.00;66.70;;;;;;5027496;28;20679;-75
2023/08/06 02:42:26;;;;;;;1.00;0.82;;;21.00;66.60;;;;;;5024000;28;20041;-75
2023/08/06 02:44:54;;;;;;;1.02;0.80;;;21.00;66.50;;;;;;5026236;28;20091;-76
2023/08/06 02:47:20;;;;;;;1.00;0.80;;;21.00;66.40;;;;;;5026727;28;20065;-75
2023/08/06 02:49:46;;;;;;;1.27;0.82;;;20.90;66.40;;;;;;5026520;28;20068;-75
2023/08/06 02:52:11;;;;;;;1.50;0.80;;;20.90;66.50;;;;;;5025867;28;20515;-75
2023/08/06 02:54:37;;;;;;;0.82;0.82;;;20.90;66.60;;;;;;5026662;28;20049;-75
2023/08/06 02:57:03;;;;;;;1.23;0.70;;;21.00;66.70;;;;;;5028053;28;20049;-75
2023/08/06 02:59:28;;;;;;;1.55;1.10;;;21.00;66.70;;;;;;5027934;28;20051;-75
2023/08/06 03:01:54;;;;;;;1.10;1.00;;;20.90;66.70;;;;;;5026364;28;20453;-76
2023/08/06 03:04:19;;;;;;;1.45;0.80;;;20.90;66.50;;;;;;5025737;28;20048;-75
2023/08/06 03:06:45;;;;;;;1.02;1.00;;;20.90;67.30;;;;;;5025982;28;20132;-75
2023/08/06 03:09:10;;;;;;;0.90;0.90;;;20.90;67.30;;;;;;5026705;28;20054;-75
2023/08/06 03:11:36;;;;;;;0.70;0.65;;;20.90;66.60;;;;;;5026321;28;20167;-75
2023/08/06 03:14:01;;;;;;;1.15;0.77;;;20.90;66.50;;;;;;5027020;28;20052;-75
2023/08/06 03:16:27;;;;;;;0.70;0.70;;;20.90;66.50;;;;;;5025052;28;20045;-75
2023/08/06 03:18:53;;;;;;;1.48;0.68;;;20.90;66.50;;;;;;5026764;28;20038;-76
2023/08/06 03:21:18;;;;;;;1.08;0.75;;;20.90;66.50;;;;;;5023681;28;20042;-76
2023/08/06 03:23:47;;;;;;;0.85;0.75;;;20.90;66.60;;;;;;5026421;28;20088;-75
2023/08/06 03:26:12;;;;;;;0.95;0.70;;;20.90;66.70;;;;;;5025929;28;20169;-75
2023/08/06 03:28:38;;;;;;;0.88;0.60;;;20.90;66.60;;;;;;5026015;28;20629;-75
2023/08/06 03:31:04;;;;;;;0.80;0.52;;;20.90;66.50;;;;;;5024180;28;20427;-75
2023/08/06 03:33:29;;;;;;;0.88;0.70;;;20.90;66.70;;;;;;5025075;28;20036;-75
2023/08/06 03:35:55;;;;;;;1.55;0.82;;;20.90;66.70;;;;;;5026333;28;20048;-75
2023/08/06 03:38:21;;;;;;;1.45;0.93;;;20.80;66.60;;;;;;5023169;28;20141;-75
2023/08/06 03:40:46;;;;;;;0.90;0.90;;;20.80;66.50;;;;;;5025453;28;20136;-76
2023/08/06 03:43:12;;;;;;;1.75;0.80;;;20.90;66.60;;;;;;5026522;28;20045;-75
2023/08/06 03:45:38;;;;;;;0.90;0.80;;;20.90;66.50;;;;;;5024240;28;20107;-75
2023/08/06 03:48:03;;;;;;;1.02;0.90;;;20.90;66.70;;;;;;5025874;28;21212;-75
2023/08/06 03:50:29;;;;;;;1.33;0.73;;;20.90;66.80;;;;;;5023594;28;20045;-75
2023/08/06 03:52:54;;;;;;;1.17;0.90;;;20.90;66.90;;;;;;5027045;28;20607;-75
2023/08/06 03:55:20;;;;;;;1.73;1.00;;;20.80;66.60;;;;;;5025932;28;20108;-75
2023/08/06 03:57:46;;;;;;;0.73;0.70;;;20.90;66.50;;;;;;5024068;28;20041;-75
2023/08/06 04:00:12;;;;;;;1.00;0.90;;;20.80;66.60;;;;;;5026169;28;20065;-75
2023/08/06 04:02:38;;;;;;;1.17;0.95;;;20.90;66.60;;;;;;5025189;28;20427;-76
2023/08/06 04:05:03;;;;;;;0.65;0.60;;;20.90;66.70;;;;;;5024548;28;20578;-76
2023/08/06 04:07:29;;;;;;;0.80;0.80;;;20.80;66.70;;;;;;5024473;28;20037;-75
2023/08/06 04:09:57;;;;;;;0.75;0.68;;;20.80;66.70;;;;;;5025831;28;20401;-75
2023/08/06 04:12:23;;;;;;;2.35;0.93;;;20.80;66.70;;;;;;5025037;28;20041;-75
2023/08/06 04:14:49;;;;;;;1.02;0.70;;;20.80;67.60;;;;;;5025853;28;20037;-75
2023/08/06 04:17:14;;;;;;;1.35;0.75;;;20.80;67.50;;;;;;5026492;28;20045;-75
2023/08/06 04:19:40;;;;;;;1.65;0.63;;;20.80;66.60;;;;;;5025035;28;20042;-75
2023/08/06 04:22:06;;;;;;;0.73;0.70;;;20.80;66.60;;;;;;5026157;28;20076;-75
2023/08/06 04:24:32;;;;;;;1.52;0.70;;;20.80;66.70;;;;;;5022026;28;20045;-76
2023/08/06 04:26:57;;;;;;;2.10;0.70;;;20.80;66.80;;;;;;5026517;28;20053;-75
2023/08/06 04:29:23;;;;;;;0.90;0.75;;;20.80;67.40;;;;;;5025393;28;20034;-75
2023/08/06 04:31:48;;;;;;;1.13;0.82;;;20.80;66.60;;;;;;5025570;28;20049;-75
2023/08/06 04:34:14;;;;;;;0.80;0.73;;;20.80;66.70;;;;;;5025605;28;20525;-75
2023/08/06 04:36:39;;;;;;;1.05;0.80;;;20.80;66.80;;;;;;5023749;28;20429;-75
2023/08/06 04:39:05;;;;;;;0.80;0.80;;;20.80;66.80;;;;;;5024968;28;20033;-75
2023/08/06 04:41:30;;;;;;;1.15;0.98;;;20.80;66.80;;;;;;5023785;28;20081;-75
2023/08/06 04:43:56;;;;;;;0.75;0.65;;;20.80;66.70;;;;;;5024260;28;20045;-75
2023/08/06 04:46:22;;;;;;;1.05;0.77;;;20.80;66.60;;;;;;5025337;28;20499;-75
2023/08/06 04:48:48;;;;;;;0.90;0.65;;;20.80;66.70;;;;;;5021843;28;20048;-75
2023/08/06 04:51:14;;;;;;;1.30;0.73;;;20.80;66.70;;;;;;5025394;28;20523;-75
2023/08/06 04:53:40;;;;;;;0.73;0.50;;;20.80;66.80;;;;;;5025081;28;20118;-75
2023/08/06 04:56:05;;;;;;;0.80;0.80;;;20.80;66.70;;;;;;5022479;28;20037;-75
2023/08/06 04:58:31;;;;;;;1.02;0.63;;;20.80;66.80;;;;;;5023852;28;20104;-76
2023/08/06 05:00:56;;;;;;;0.77;0.70;;;20.80;66.80;;;;;;5024320;28;20041;-75
2023/08/06 05:03:22;;;;;;;1.08;0.80;;;20.80;66.50;;;;;;5025579;28;20449;-75
2023/08/06 05:05:48;;;;;;;1.13;0.80;;;20.80;66.70;;;;;;5024775;28;20065;-75
2023/08/06 05:08:16;;;;;;;0.80;0.80;;;20.80;67.00;;;;;;5025117;28;20049;-75
2023/08/06 05:10:43;;;;;;;1.08;0.70;;;20.80;66.80;;;;;;5023557;28;20107;-75
2023/08/06 05:13:09;;;;;;;0.82;0.77;;;20.80;66.80;;;;;;5026036;28;20072;-75
2023/08/06 05:15:35;;;;;;;1.20;0.82;;;20.80;66.70;;;;;;5021983;28;20033;-75
2023/08/06 05:18:00;;;;;;;0.57;0.57;;;20.80;66.70;;;;;;5025121;28;20046;-76
2023/08/06 05:20:26;;;;;;;0.80;0.70;;;20.80;66.60;;;;;;5022476;28;20108;-75
2023/08/06 05:22:51;;;;;;;1.05;0.70;;;20.80;66.60;;;;;;5024031;28;20049;-75
2023/08/06 05:25:17;;;;;;;0.80;0.80;;;20.80;66.70;;;;;;5024953;28;20041;-75
2023/08/06 05:27:42;;;;;;;0.82;0.60;;;20.80;66.80;;;;;;5022717;28;20081;-75
2023/08/06 05:30:08;;;;;;;0.82;0.80;;;20.80;66.70;;;;;;5025393;28;20045;-75
2023/08/06 05:32:34;;;;;;;1.42;0.57;;;20.80;66.80;;;;;;5023558;28;20048;-75
2023/08/06 05:35:00;;;;;;;0.80;0.60;;;20.80;66.80;;;;;;5023763;28;20045;-75
2023/08/06 05:37:25;;;;;;;1.33;0.70;;;20.80;66.70;;;;;;5024082;28;20116;-73
2023/08/06 05:39:51;;;;;;;0.55;0.50;;;20.80;66.80;;;;;;5021883;28;20589;-72
2023/08/06 05:42:16;;;;;;;0.93;0.70;;;20.80;66.80;;;;;;5024065;28;20038;-72
2023/08/06 05:44:42;;;;;;;1.15;0.88;;;20.80;66.80;;;;;;5023807;28;20048;-72
2023/08/06 05:47:07;;;;;;;0.98;0.63;;;20.80;67.00;;;;;;5023075;28;20041;-72
2023/08/06 05:49:33;;;;;;;1.08;0.70;;;20.80;66.80;;;;;;5024125;28;20045;-72
2023/08/06 05:51:59;;;;;;;1.23;0.57;;;20.80;66.90;;;;;;5021484;28;20400;-72
2023/08/06 05:54:25;;;;;;;1.77;0.75;;;20.80;66.90;;;;;;5023060;28;20048;-72
2023/08/06 05:56:50;;;;;;;1.02;0.63;;;20.80;66.80;;;;;;5023986;28;20049;-72
2023/08/06 05:59:16;;;;;;;1.42;0.60;;;20.80;66.70;;;;;;5025214;28;20041;-72
2023/08/06 06:01:41;;;;;;;0.90;0.55;;;20.80;66.70;;;;;;5021508;28;20802;-72
2023/08/06 06:04:07;;;;;;;0.98;0.88;;;20.80;66.50;;;;;;5021816;28;20042;-72
2023/08/06 06:06:32;;;;;;;0.73;0.60;;;20.80;66.80;;;;;;5023545;28;20070;-72
2023/08/06 06:08:58;;;;;;;1.77;0.70;;;20.80;66.80;;;;;;5025008;28;20041;-72
2023/08/06 06:11:23;;;;;;;0.85;0.77;;;20.80;66.70;;;;;;5022467;28;20041;-72
2023/08/06 06:13:50;;;;;;;1.13;0.90;;;20.80;66.80;;;;;;5023540;28;20060;-72
2023/08/06 06:16:16;;;;;;;0.82;0.50;;;20.80;66.70;;;;;;5023682;28;20136;-72
2023/08/06 06:18:41;;;;;;;0.77;0.77;;;20.70;66.70;;;;;;5021654;28;20120;-72
2023/08/06 06:21:07;;;;;;;1.02;0.70;;;20.70;66.90;;;;;;5024231;28;20057;-72
2023/08/06 06:23:33;;;;;;;0.90;0.60;;;20.80;66.90;;;;;;5023154;28;20510;-72
2023/08/06 06:25:59;;;;;;;1.42;0.80;;;20.80;66.80;;;;;;5021342;28;20393;-72
2023/08/06 06:28:24;;;;;;;0.93;0.60;;;20.80;66.80;;;;;;5023272;28;20049;-72
2023/08/06 06:30:51;;;;;;;1.83;0.90;;;20.80;66.80;;;;;;4990853;28;20103;-72
2023/08/06 06:33:16;;;;;;;1.08;0.85;;;20.80;66.90;;;;;;5023135;28;20523;-72
2023/08/06 06:35:42;;;;;;;1.08;0.90;;;20.70;66.90;;;;;;5020909;28;20065;-72
2023/08/06 06:38:07;;;;;;;1.25;0.73;;;20.80;66.90;;;;;;5020356;28;20061;-72
2023/08/06 06:40:33;;;;;;;0.90;0.68;;;20.80;67.00;;;;;;5021863;28;20037;-73
2023/08/06 06:42:59;;;;;;;1.35;0.73;;;20.80;67.00;;;;;;5023067;28;20117;-72
2023/08/06 06:45:24;;;;;;;0.75;0.50;;;20.80;66.80;;;;;;5022433;28;20046;-72
2023/08/06 06:47:50;;;;;;;0.88;0.70;;;20.80;66.80;;;;;;5021347;28;20033;-72
2023/08/06 06:50:15;;;;;;;0.85;0.70;;;20.80;66.80;;;;;;5023646;28;20521;-72
2023/08/06 06:52:41;;;;;;;1.20;0.98;;;20.80;66.90;;;;;;5023185;28;20041;-72
2023/08/06 06:55:07;;;;;;;0.75;0.60;;;20.80;67.00;;;;;;5024602;28;20518;-72
2023/08/06 06:57:32;;;;;;;1.67;0.63;;;20.80;66.90;;;;;;5020829;28;20034;-73
2023/08/06 06:59:58;;;;;;;0.80;0.50;;;20.80;67.00;;;;;;5023560;28;20038;-72
2023/08/06 07:02:23;;;;;;;1.30;0.93;;;20.80;67.80;;;;;;5023568;28;20041;-72
2023/08/06 07:04:50;;;;;;;1.40;0.80;;;20.80;67.80;;;;;;5022186;28;20034;-72
2023/08/06 07:07:15;;;;;;;1.00;0.80;;;20.80;67.30;;;;;;5021333;28;20038;-72
2023/08/06 07:09:41;;;;;;;1.13;0.60;;;20.80;67.00;;;;;;5019799;28;20406;-72
2023/08/06 07:12:07;;;;;;;1.10;0.88;;;20.80;67.00;;;;;;5025685;28;20065;-72
2023/08/06 07:14:32;;;;;;;1.00;0.57;;;20.80;67.00;;;;;;5024886;28;20410;-72
2023/08/06 07:16:58;;;;;;;1.10;0.90;;;20.80;67.10;;;;;;5022358;28;20037;-72
2023/08/06 07:19:23;;;;;;;0.80;0.60;;;20.80;67.80;;;;;;5022501;28;20029;-72
2023/08/06 07:21:49;;;;;;;1.48;0.82;;;20.80;67.10;;;;;;5021712;28;20128;-72
2023/08/06 07:24:14;;;;;;;0.95;0.75;;;20.80;67.10;;;;;;5021587;28;20083;-72
2023/08/06 07:26:40;;;;;;;0.88;0.65;;;20.80;67.10;;;;;;5024598;28;20537;-72
2023/08/06 07:29:05;;;;;;;2.20;0.80;;;20.80;67.40;;;;;;5026098;28;20124;-72
2023/08/06 07:31:31;;;;;;;1.88;0.88;;;20.80;67.30;;;;;;5026480;28;20088;-72
2023/08/06 07:33:57;;;;;;;0.73;0.60;;;20.80;67.10;;;;;;5024525;28;20042;-72
2023/08/06 07:36:22;;;;;;;1.05;0.68;;;20.80;67.00;;;;;;5026514;28;20549;-72
2023/08/06 07:38:51;;;;;;;1.15;0.55;;;20.80;67.10;;;;;;5026372;28;20054;-72
2023/08/06 07:41:17;;;;;;;1.38;0.70;;;20.80;67.80;;;;;;5027543;28;20054;-72
2023/08/06 07:43:42;;;;;;;0.98;0.70;;;20.80;67.10;;;;;;5024134;28;20521;-72
2023/08/06 07:46:08;;;;;;;0.90;0.70;;;20.80;67.90;;;;;;5026367;28;20060;-72
2023/08/06 07:48:33;;;;;;;1.15;0.50;;;20.80;67.20;;;;;;5025408;28;20042;-72
2023/08/06 07:50:59;;;;;;;0.98;0.70;;;20.80;67.10;;;;;;5024348;28;20129;-72
2023/08/06 07:53:29;;;;;;;0.93;0.57;;;20.80;67.10;;;;;;5025494;28;20053;-72
2023/08/06 07:55:54;;;;;;;1.17;0.70;;;20.80;67.10;;;;;;5025060;28;20045;-72
2023/08/06 07:58:20;;;;;;;1.10;0.60;;;20.90;67.20;;;;;;5024325;28;20033;-72
2023/08/06 08:00:46;;;;;;;0.80;0.80;;;20.90;67.30;;;;;;5023888;28;20495;-72
2023/08/06 08:03:13;;;;;;;0.93;0.70;;;20.80;67.10;;;;;;5025279;28;20053;-72
2023/08/06 08:05:39;;;;;;;2.83;0.70;;;20.90;67.10;;;;;;5026650;28;20052;-73
2023/08/06 08:08:04;;;;;;;1.08;0.70;;;20.90;67.20;;;;;;5009941;28;20045;-72
2023/08/06 08:10:31;;;;;;;1.10;0.85;;;20.90;67.20;;;;;;5024409;28;20034;-72
2023/08/06 08:12:56;;;;;;;0.85;0.55;;;20.90;68.00;;;;;;5025269;28;20058;-72
2023/08/06 08:15:22;;;;;;;1.00;0.70;;;20.90;67.20;;;;;;5023577;28;20083;-72
2023/08/06 08:17:49;;;;;;;1.50;0.75;;;20.90;67.30;;;;;;5023726;28;20503;-72
2023/08/06 08:20:16;;;;;;;2.45;0.57;;;20.90;67.30;;;;;;5026129;28;20088;-72
2023/08/06 08:22:41;;;;;;;0.63;0.50;;;20.90;67.50;;;;;;5008886;28;20077;-72
2023/08/06 08:25:07;;;;;;;1.20;0.70;;;20.90;67.60;;;;;;5025548;28;20537;-72
2023/08/06 08:27:33;;;;;;;0.73;0.60;;;20.90;67.50;;;;;;5024658;28;20407;-72
2023/08/06 08:29:58;;;;;;;1.17;0.70;;;21.00;67.50;;;;;;5024450;28;20029;-72
2023/08/06 08:32:24;;;;;;;1.67;0.82;;;21.00;67.50;;;;;;5023147;28;20124;-72
2023/08/06 08:34:49;;;;;;;2.55;1.13;;;21.00;67.60;;;;;;5022152;28;20033;-72
2023/08/06 08:37:15;;;;;;;0.80;0.70;;;21.00;67.50;;;;;;5023874;28;20739;-72
2023/08/06 08:39:40;;;;;;;1.30;0.52;;;21.00;67.60;;;;;;5009035;28;20041;-72
2023/08/06 08:42:07;;;;;;;1.10;0.63;;;21.00;67.80;;;;;;5026916;28;20053;-72
2023/08/06 08:44:33;;;;;;;0.50;0.43;;;20.90;67.70;;;;;;5026138;28;20538;-72
2023/08/06 08:46:59;;;;;;;1.17;0.63;;;21.00;67.70;;;;;;5025002;28;20136;-72
2023/08/06 08:49:25;;;;;;;1.65;0.80;;;21.00;68.20;;;;;;5024362;28;20042;-72
2023/08/06 08:51:51;;;;;;;0.98;0.80;;;21.10;67.70;;;;;;5008928;28;20060;-72
2023/08/06 08:54:17;;;;;;;1.55;0.60;;;21.10;67.80;;;;;;5024311;28;20045;-72
2023/08/06 08:56:42;;;;;;;1.08;0.70;;;21.10;67.60;;;;;;5026549;28;20037;-73
2023/08/06 08:59:08;;;;;;;1.10;0.60;;;21.10;68.30;;;;;;5025175;28;20046;-72
2023/08/06 09:01:33;;;;;;;0.70;0.70;;;21.10;68.40;;;;;;5007407;28;20038;-72
2023/08/06 09:03:59;;;;;;;0.95;0.50;;;21.10;67.70;;;;;;5024753;28;20577;-72
2023/08/06 09:06:27;;;;;;;0.80;0.45;;;21.10;67.70;;;;;;5024656;28;20053;-72
2023/08/06 09:09:22;;;;;;;0.47;0.40;;;21.10;67.70;;;;;;5023506;28;20125;-72
2023/08/06 09:11:49;;;;;;;0.70;0.70;;;21.10;67.70;;;;;;5031721;28;20120;-72
2023/08/06 09:14:14;;;;;;;1.33;0.60;;;21.10;67.70;;;;;;5025981;28;20077;-72
2023/08/06 09:16:40;;;;;;;0.63;0.50;;;21.10;67.70;;;;;;5023133;28;20068;-74
2023/08/06 09:19:12;;;;;;;0.88;0.60;;;21.20;67.60;;;;;;5024267;28;20056;-72
2023/08/06 09:21:42;;;;;;;0.85;0.50;;;21.20;67.60;;;;;;5023442;28;20107;-72
2023/08/06 09:24:11;;;;;;;1.60;0.85;;;21.20;67.60;;;;;;5024133;28;20132;-72
2023/08/06 09:26:38;;;;;;;0.60;0.57;;;21.20;67.50;;;;;;5023487;28;20053;-72
2023/08/06 09:29:06;;;;;;;2.17;0.55;;;21.30;67.50;;;;;;5023391;28;20037;-72
2023/08/06 09:31:45;;;;;;;1.10;0.60;;;21.30;68.30;;;;;;5023785;28;20057;-72
2023/08/06 09:34:14;;;;;;;0.82;0.68;;;21.30;67.40;;;;;;5024764;28;20443;-72
2023/08/06 09:36:41;;;;;;;0.90;0.68;;;21.30;67.40;;;;;;5023868;28;20054;-72
2023/08/06 09:39:17;;;;;;;1.17;0.60;;;21.20;67.30;;;;;;5023091;28;20049;-72
2023/08/06 09:41:43;;;;;;;0.40;0.40;;;21.20;67.40;;;;;;5025701;28;20059;-73
2023/08/06 09:44:19;;;;;;;1.70;0.60;;;21.20;67.60;;;;;;5023213;28;20446;-72
2023/08/06 09:47:03;;;;;;;0.60;0.50;;;21.20;67.60;;;;;;5022068;28;20092;-73
2023/08/06 09:49:31;;;;;;;;;;;21.20;67.60;;;;;;5023420;28;20046;-72
2023/08/06 09:51:59;;;;;;;0.60;0.45;;;21.20;67.50;;;;;;5023888;28;19917;-72
2023/08/06 09:54:26;;;;;;;1.17;0.60;;;21.20;68.30;;;;;;5023153;28;20060;-72
2023/08/06 09:56:52;;;;;;;0.68;0.50;;;21.30;67.50;;;;;;5023365;28;20042;-72
2023/08/06 09:59:18;;;;;;;0.73;0.50;;;21.20;67.40;;;;;;5025150;28;20034;-72
2023/08/06 10:01:44;;;;;;;1.58;0.85;;;21.30;67.40;;;;;;5008126;28;20526;-73
2023/08/06 10:04:11;;;;;;;0.60;0.57;;;21.30;67.40;;;;;;5022825;28;20503;-72
2023/08/06 10:06:37;;;;;;;0.50;0.38;;;21.30;67.20;;;;;;5023733;28;20048;-72
2023/08/06 10:09:05;;;;;;;0.95;0.50;;;21.30;67.10;;;;;;5022746;28;20500;-72
2023/08/06 10:11:31;;;;;;;0.32;0.30;;;21.30;67.10;;;;;;5023841;28;20045;-72
2023/08/06 10:14:26;;;;;;;0.65;0.40;;;21.30;67.10;;;;;;5021553;28;20037;-72
2023/08/06 10:16:51;;;;;;;0.60;0.40;;;21.30;67.20;;;;;;5019683;28;20045;-72
2023/08/06 10:19:17;;;;;;;0.60;0.47;;;21.30;67.10;;;;;;5007998;28;20042;-72
2023/08/06 10:21:56;;;;;;;0.85;0.40;;;21.30;67.10;;;;;;5039982;28;20101;-72
2023/08/06 10:24:21;;;;;;;0.73;0.40;;;21.30;67.00;;;;;;5020318;28;20058;-72
2023/08/06 10:26:47;;;;;;;0.60;0.50;;;21.30;67.10;;;;;;5023600;28;20419;-73
2023/08/06 10:29:37;;;;;;;0.70;0.45;;;21.40;67.20;;;;;;5024077;28;20124;-72
2023/08/06 10:32:04;;;;;;;0.47;0.32;;;21.40;67.10;;;;;;5023579;28;20049;-72
2023/08/06 10:34:58;;;;;;;0.75;0.68;;;21.40;66.90;;;;;;5021672;28;20129;-72
2023/08/06 10:37:24;;;;;;;1.25;0.60;;;21.40;66.80;;;;;;5001556;28;20034;-72
2023/08/06 10:39:51;;;;;;;1.27;0.52;;;21.40;66.90;;;;;;5011604;28;20141;-73
2023/08/06 10:42:26;;;;;;;1.40;0.40;;;21.40;66.90;;;;;;5021425;28;20053;-72
2023/08/06 10:45:18;;;;;;;0.57;0.40;;;21.40;67.00;;;;;;5022900;28;20053;-72
2023/08/06 10:47:43;;;;;;;0.80;0.40;;;21.40;67.10;;;;;;5021508;28;20112;-72
2023/08/06 10:50:12;;;;;;;1.08;0.60;;;21.40;67.10;;;;;;5023458;28;20483;-72
2023/08/06 10:52:37;;;;;;;0.80;0.60;;;21.40;66.90;;;;;;5023464;28;20049;-72
2023/08/06 10:55:03;;;;;;;0.77;0.50;;;21.40;66.90;;;;;;5022557;28;20128;-72
2023/08/06 10:57:29;;;;;;;0.70;0.35;;;21.40;66.70;;;;;;5022801;28;20524;-72
2023/08/06 10:59:54;;;;;;;0.55;0.50;;;21.40;66.40;;;;;;5024286;28;20052;-72
2023/08/06 11:02:20;;;;;;;0.75;0.52;;;21.40;66.50;;;;;;5027522;28;20048;-72
2023/08/06 11:04:46;;;;;;;0.75;0.50;;;21.40;66.60;;;;;;5026621;28;20077;-72
2023/08/06 11:07:13;;;;;;;0.50;0.28;;;21.40;66.70;;;;;;5023742;28;20045;-72
2023/08/06 11:09:38;;;;;;;0.50;0.45;;;21.40;66.70;;;;;;5027716;28;20049;-72
2023/08/06 11:12:10;;;;;;;0.45;0.40;;;21.40;66.70;;;;;;5009608;28;20063;-72
2023/08/06 11:14:35;;;;;;;0.40;0.30;;;21.40;66.70;;;;;;5025928;28;20052;-72
2023/08/06 11:17:01;;;;;;;0.60;0.40;;;21.40;66.80;;;;;;5023853;28;20041;-72
2023/08/06 11:19:26;;;;;;;1.05;0.52;;;21.40;66.80;;;;;;5027333;28;20108;-72
2023/08/06 11:21:52;;;;;;;0.70;0.40;;;21.40;66.80;;;;;;5055214;28;20129;-73
2023/08/06 11:24:18;;;;;;;0.30;0.30;;;21.40;66.70;;;;;;5026846;28;20514;-72
2023/08/06 11:26:44;;;;;;;0.50;0.40;;;21.40;66.70;;;;;;5027481;28;20396;-72
2023/08/06 11:29:10;;;;;;;0.65;0.40;;;21.40;66.70;;;;;;5024547;28;20041;-72
2023/08/06 11:31:36;;;;;;;0.50;0.40;;;21.40;66.50;;;;;;5025818;28;20049;-72
2023/08/06 11:34:01;;;;;;;0.50;0.50;;;21.40;66.50;;;;;;5027015;28;20048;-72
2023/08/06 11:36:31;;;;;;;0.40;0.40;;;21.40;66.40;;;;;;5024792;28;20519;-72
2023/08/06 11:38:57;;;;;;;0.70;0.47;;;21.40;66.50;;;;;;5023426;28;20068;-76
2023/08/06 11:41:23;;;;;;;0.85;0.50;;;21.40;66.40;;;;;;5025079;28;20052;-76
2023/08/06 11:43:49;;;;;;;0.70;0.38;;;21.40;66.50;;;;;;5024706;28;20385;-75
2023/08/06 11:46:14;;;;;;;0.50;0.30;;;21.40;66.50;;;;;;5024621;28;20115;-76
2023/08/06 11:48:54;;;;;;;0.55;0.47;;;21.40;66.50;;;;;;5025558;28;20098;-76
2023/08/06 11:51:23;;;;;;;0.57;0.30;;;21.40;66.50;;;;;;5021092;28;20061;-76
2023/08/06 11:53:49;;;;;;;0.30;0.30;;;21.40;66.50;;;;;;5024538;28;20068;-76
2023/08/06 11:56:15;;;;;;;0.65;0.63;;;21.40;66.50;;;;;;5025964;28;20030;-76
2023/08/06 11:58:44;;;;;;;0.40;0.35;;;21.40;66.20;;;;;;5024411;28;20046;-76
2023/08/06 12:01:09;;;;;;;0.63;0.30;;;21.40;66.30;;;;;;5026103;28;20056;-76
2023/08/06 12:03:41;;;;;;;0.52;0.35;;;21.40;66.20;;;;;;5024130;28;20055;-76
2023/08/06 12:06:07;;;;;;;0.47;0.40;;;21.40;66.20;;;;;;5023818;28;20045;-76
2023/08/06 12:08:33;;;;;;;0.40;0.30;;;21.40;66.00;;;;;;5028310;28;20021;-76
2023/08/06 12:10:58;;;;;;;0.60;0.47;;;21.40;66.10;;;;;;5024590;28;20048;-76
2023/08/06 12:13:24;;;;;;;0.40;0.40;;;21.50;66.00;;;;;;5017861;28;20546;-76
2023/08/06 12:15:49;;;;;;;0.40;0.35;;;21.50;66.10;;;;;;5021525;28;20045;-76
2023/08/06 12:18:15;;;;;;;0.50;0.35;;;21.50;67.00;;;;;;5023889;28;20168;-76
2023/08/06 12:20:41;;;;;;;0.50;0.50;;;21.40;66.10;;;;;;5026541;28;20511;-76
2023/08/06 12:23:06;;;;;;;0.50;0.30;;;21.40;66.10;;;;;;5023543;28;20033;-76
2023/08/06 12:25:32;;;;;;;0.40;0.28;;;21.40;66.10;;;;;;5024511;28;20041;-76
2023/08/06 12:27:57;;;;;;;1.73;0.38;;;21.40;66.20;;;;;;5022808;28;20041;-76
2023/08/06 12:30:23;;;;;;;0.47;0.47;;;21.40;67.00;;;;;;5027501;28;20096;-76
2023/08/06 12:32:48;;;;;;;0.30;0.20;;;21.40;67.00;;;;;;5025649;28;20570;-76
2023/08/06 12:35:14;;;;;;;0.32;0.30;;;21.40;66.10;;;;;;5024529;28;20127;-76
2023/08/06 12:37:40;;;;;;;0.52;0.30;;;21.40;66.00;;;;;;5021544;28;20061;-76
2023/08/06 12:40:06;;;;;;;0.43;0.30;;;21.50;66.00;;;;;;5022481;28;20041;-76
2023/08/06 12:42:31;;;;;;;0.38;0.30;;;21.50;66.00;;;;;;5024452;28;20063;-76
2023/08/06 12:44:58;;;;;;;0.28;0.20;;;21.50;65.90;;;;;;5024228;28;20303;-76